createdAt,value
2022-08-11T00:00:12.035Z,77.98
2022-08-11T00:02:44.804Z,76.36
2022-08-11T00:05:19.518Z,75.23
2022-08-11T00:07:53.021Z,72.82
2022-08-11T00:10:27.456Z,72.28
2022-08-11T00:13:00.313Z,72.07
2022-08-11T00:15:42.190Z,70.87
2022-08-11T00:18:14.278Z,70.12
2022-08-11T00:20:48.260Z,71.18
2022-08-11T00:23:22.138Z,69.77
2022-08-11T00:25:55.180Z,70.28
2022-08-11T00:28:30.660Z,70.38
2022-08-11T00:31:05.770Z,70.74
2022-08-11T00:33:44.993Z,71.33
2022-08-11T00:36:25.328Z,70.61
2022-08-11T00:38:58.544Z,70.84
2022-08-11T00:41:37.124Z,70.55
2022-08-11T00:44:31.645Z,70.48
2022-08-11T00:47:17.347Z,69.96
2022-08-11T00:50:04.106Z,71.01
2022-08-11T00:53:00.035Z,70.23
2022-08-11T00:56:11.277Z,70.99
2022-08-11T00:59:34.379Z,70.10
2022-08-11T01:02:18.006Z,70.27
2022-08-11T01:05:24.875Z,69.88
2022-08-11T01:08:26.327Z,71.02
2022-08-11T01:11:28.828Z,70.19
2022-08-11T01:14:37.772Z,69.79
2022-08-11T01:21:12.203Z,69.44
2022-08-11T01:24:27.523Z,69.64
2022-08-11T01:27:36.241Z,69.90
2022-08-11T01:30:37.267Z,69.18
2022-08-11T01:33:41.623Z,69.45
2022-08-11T01:36:56.585Z,68.58
2022-08-11T01:40:15.036Z,67.79
2022-08-11T01:43:34.307Z,66.48
2022-08-11T01:46:10.404Z,67.43
2022-08-11T01:48:47.584Z,68.25
2022-08-11T01:51:27.730Z,67.69
2022-08-11T01:54:07.401Z,67.43
2022-08-11T01:56:50.263Z,67.30
2022-08-11T01:59:23.879Z,67.30
2022-08-11T02:02:46.825Z,67.42
2022-08-11T02:05:36.700Z,68.58
2022-08-11T02:08:20.093Z,67.17
2022-08-11T02:11:35.678Z,67.51
2022-08-11T02:14:27.058Z,67.84
2022-08-11T02:17:10.376Z,65.95
2022-08-11T02:20:13.865Z,65.73
2022-08-11T02:23:13.887Z,66.10
2022-08-11T02:26:12.051Z,66.55
2022-08-11T02:29:06.579Z,66.02
2022-08-11T02:32:24.870Z,65.15
2022-08-11T02:35:07.336Z,65.58
2022-08-11T02:37:49.417Z,63.45
2022-08-11T02:40:27.636Z,62.43
2022-08-11T02:43:13.848Z,62.29
2022-08-11T02:46:03.594Z,61.65
2022-08-11T02:49:13.180Z,62.73
2022-08-11T02:51:54.706Z,61.19
2022-08-11T02:54:30.859Z,62.37
2022-08-11T02:57:11.438Z,62.17
2022-08-11T02:59:55.555Z,63.01
2022-08-11T03:02:43.218Z,64.36
2022-08-11T03:05:26.809Z,64.74
2022-08-11T03:08:14.538Z,64.25
2022-08-11T03:11:09.668Z,63.17
2022-08-11T03:14:02.783Z,61.78
2022-08-11T03:16:49.712Z,62.82
2022-08-11T03:19:29.217Z,61.89
2022-08-11T03:22:10.244Z,61.99
2022-08-11T03:25:01.316Z,62.35
2022-08-11T03:27:47.213Z,63.85
2022-08-11T03:30:20.385Z,63.73
2022-08-11T03:33:37.920Z,63.81
2022-08-11T03:36:29.052Z,59.85
2022-08-11T03:39:14.210Z,58.10
2022-08-11T03:42:04.218Z,56.61
2022-08-11T03:44:53.037Z,56.76
2022-08-11T03:47:37.063Z,57.21
2022-08-11T03:50:25.701Z,60.35
2022-08-11T03:53:09.399Z,61.58
2022-08-11T03:56:06.093Z,62.62
2022-08-11T03:58:59.630Z,63.01
2022-08-11T04:01:58.167Z,59.73
2022-08-11T04:05:12.757Z,56.64
2022-08-11T04:08:34.297Z,55.78
2022-08-11T04:11:37.972Z,55.83
2022-08-11T04:14:57.570Z,55.70
2022-08-11T04:18:05.406Z,55.24
2022-08-11T04:20:54.452Z,55.23
2022-08-11T04:24:37.181Z,55.51
2022-08-11T04:27:37.414Z,54.58
2022-08-11T04:30:16.790Z,55.64
2022-08-11T04:33:14.215Z,55.67
2022-08-11T04:35:55.995Z,56.36
2022-08-11T04:38:59.842Z,56.27
2022-08-11T04:42:18.707Z,55.55
2022-08-11T04:45:25.415Z,56.71
2022-08-11T04:48:33.960Z,57.26
2022-08-11T04:51:49.954Z,56.64
2022-08-11T04:54:51.236Z,56.41
2022-08-11T04:58:00.667Z,56.73
2022-08-11T05:00:58.434Z,56.79
2022-08-11T05:04:29.910Z,56.27
2022-08-11T05:07:44.340Z,56.70
2022-08-11T05:10:26.764Z,56.63
2022-08-11T05:13:19.176Z,56.37
2022-08-11T05:16:10.914Z,56.58
2022-08-11T05:19:08.238Z,56.34
2022-08-11T05:21:57.598Z,56.05
2022-08-11T05:24:55.866Z,56.19
2022-08-11T05:27:53.244Z,57.06
2022-08-11T05:30:45.490Z,56.51
2022-08-11T05:33:40.917Z,56.16
2022-08-11T05:36:19.480Z,57.33
2022-08-11T05:39:15.817Z,58.51
2022-08-11T05:42:03.396Z,59.30
2022-08-11T05:44:54.184Z,60.20
2022-08-11T05:47:44.957Z,58.74
2022-08-11T05:50:34.451Z,59.83
2022-08-11T05:53:29.155Z,59.51
2022-08-11T05:56:21.797Z,59.19
2022-08-11T05:58:54.567Z,59.04
2022-08-11T06:01:28.970Z,59.38
2022-08-11T06:04:17.332Z,60.88
2022-08-11T06:06:54.203Z,61.53
2022-08-11T06:09:28.049Z,63.19
2022-08-11T06:12:02.380Z,62.83
2022-08-11T06:14:33.676Z,62.80
2022-08-11T06:17:08.488Z,63.16
2022-08-11T06:19:42.579Z,63.06
2022-08-11T06:22:14.756Z,63.37
2022-08-11T06:24:53.856Z,63.47
2022-08-11T06:27:27.392Z,64.23
2022-08-11T06:29:58.990Z,64.17
2022-08-11T06:32:36.241Z,64.53
2022-08-11T06:35:20.904Z,65.01
2022-08-11T06:38:07.720Z,65.33
2022-08-11T06:41:10.917Z,65.58
2022-08-11T06:43:55.303Z,65.73
2022-08-11T06:46:32.093Z,65.76
2022-08-11T06:49:06.623Z,65.77
2022-08-11T06:51:41.666Z,65.73
2022-08-11T06:54:17.171Z,65.15
2022-08-11T06:57:28.849Z,65.17
2022-08-11T07:00:15.954Z,64.85
2022-08-11T07:02:52.201Z,64.70
2022-08-11T07:05:28.893Z,64.85
2022-08-11T07:08:54.399Z,65.06
2022-08-11T07:12:06.187Z,65.68
2022-08-11T07:15:00.223Z,65.85
2022-08-11T07:17:34.708Z,66.11
2022-08-11T07:20:24.571Z,65.74
2022-08-11T07:23:16.701Z,65.68
2022-08-11T07:26:09.595Z,65.46
2022-08-11T07:28:59.516Z,64.56
2022-08-11T07:31:37.681Z,64.83
2022-08-11T07:34:19.201Z,63.91
2022-08-11T07:36:55.043Z,63.51
2022-08-11T07:39:30.597Z,63.40
2022-08-11T07:42:03.069Z,63.57
2022-08-11T07:44:54.058Z,63.02
2022-08-11T07:47:42.783Z,62.87
2022-08-11T07:50:32.221Z,62.02
2022-08-11T07:53:04.065Z,61.89
2022-08-11T07:55:51.889Z,62.34
2022-08-11T07:58:52.084Z,61.93
2022-08-11T08:01:41.952Z,62.01
2022-08-11T08:04:33.549Z,62.62
2022-08-11T08:07:25.842Z,62.93
2022-08-11T08:10:16.172Z,63.31
2022-08-11T08:13:05.476Z,62.28
2022-08-11T08:15:52.569Z,62.25
2022-08-11T08:18:27.579Z,62.98
2022-08-11T08:21:12.711Z,63.44
2022-08-11T08:23:45.793Z,63.70
2022-08-11T08:26:36.541Z,63.49
2022-08-11T08:29:27.175Z,62.79
2022-08-11T08:31:59.385Z,63.88
2022-08-11T08:34:32.447Z,63.65
2022-08-11T08:37:15.872Z,63.84
2022-08-11T08:39:55.932Z,63.70
2022-08-11T08:42:30.424Z,63.89
2022-08-11T08:45:08.089Z,64.31
2022-08-11T08:47:42.171Z,64.52
2022-08-11T08:50:16.250Z,64.49
2022-08-11T08:52:55.219Z,64.94
2022-08-11T08:55:27.494Z,65.27
2022-08-11T08:58:01.568Z,65.48
2022-08-11T09:00:43.609Z,65.71
2022-08-11T09:03:39.902Z,65.63
2022-08-11T09:06:06.784Z,65.43
2022-08-11T09:08:38.709Z,65.79
2022-08-11T09:11:25.842Z,66.14
2022-08-11T09:14:05.017Z,66.58
2022-08-11T09:16:40.158Z,66.50
2022-08-11T09:19:11.486Z,66.26
2022-08-11T09:21:49.520Z,66.34
2022-08-11T09:24:37.857Z,66.61
2022-08-11T09:27:10.411Z,66.76
2022-08-11T09:29:41.809Z,67.57
2022-08-11T09:32:15.957Z,67.69
2022-08-11T09:47:04.285Z,71.10
2022-08-11T09:49:38.294Z,71.17
2022-08-11T09:52:11.410Z,71.73
2022-08-11T09:54:48.158Z,72.52
2022-08-11T09:57:39.400Z,73.31
2022-08-11T10:00:14.782Z,73.68
2022-08-11T10:02:47.843Z,74.63
2022-08-11T10:05:40.929Z,75.10
2022-08-11T10:08:16.383Z,75.31
2022-08-11T10:10:49.774Z,75.77
2022-08-11T10:13:44.061Z,76.19
2022-08-11T10:16:20.753Z,76.25
2022-08-11T10:18:55.099Z,76.30
2022-08-11T10:21:37.854Z,76.65
2022-08-11T10:24:27.505Z,76.77
2022-08-11T10:27:02.132Z,77.20
2022-08-11T10:29:52.569Z,77.46
2022-08-11T10:32:58.887Z,77.96
2022-08-11T10:35:33.769Z,78.18
2022-08-11T10:38:09.933Z,78.28
2022-08-11T10:40:44.129Z,78.27
2022-08-11T10:44:01.271Z,78.56
2022-08-11T10:46:30.361Z,78.77
2022-08-11T10:49:05.003Z,78.80
2022-08-11T10:51:53.778Z,79.09
2022-08-11T10:54:44.173Z,79.18
2022-08-11T10:57:34.387Z,79.25
2022-08-11T11:00:08.706Z,79.38
2022-08-11T11:02:40.648Z,79.22
2022-08-11T11:05:18.738Z,79.23
2022-08-11T11:07:58.208Z,78.95
2022-08-11T11:10:34.219Z,79.20
2022-08-11T11:13:22.658Z,79.35
2022-08-11T11:16:26.574Z,79.65
2022-08-11T11:19:51.351Z,80.08
2022-08-11T11:22:41.459Z,80.50
2022-08-11T11:47:59.996Z,81.23
2022-08-11T11:50:37.435Z,81.35
2022-08-11T11:53:11.498Z,81.42
2022-08-11T11:55:45.803Z,81.67
2022-08-11T11:58:35.292Z,81.93
2022-08-11T12:01:26.445Z,82.60
2022-08-11T12:04:31.375Z,82.92
2022-08-11T12:11:21.254Z,83.46
2022-08-11T12:13:59.821Z,83.70
2022-08-11T12:16:36.815Z,84.12
2022-08-11T12:19:17.275Z,84.69
2022-08-11T12:22:09.070Z,85.56
2022-08-11T12:24:58.027Z,86.30
2022-08-11T12:27:33.758Z,86.90
2022-08-11T12:30:17.592Z,87.83
2022-08-11T12:32:54.544Z,88.17
2022-08-11T12:35:25.891Z,88.28
2022-08-11T12:38:07.982Z,88.76
2022-08-11T12:41:18.035Z,88.71
2022-08-11T12:44:07.948Z,88.92
2022-08-11T12:46:45.250Z,89.24
2022-08-11T12:49:45.355Z,89.80
2022-08-11T12:52:24.231Z,90.66
2022-08-11T12:55:07.549Z,90.90
2022-08-11T12:58:17.288Z,91.07
2022-08-11T13:01:05.953Z,90.92
2022-08-11T13:04:03.186Z,91.02
2022-08-11T13:06:36.364Z,91.17
2022-08-11T13:09:11.293Z,91.22
2022-08-11T13:12:00.132Z,91.10
2022-08-11T13:14:33.870Z,91.55
2022-08-11T13:17:43.562Z,91.64
2022-08-11T13:20:19.247Z,92.02
2022-08-11T13:22:57.166Z,92.14
2022-08-11T13:25:30.599Z,92.38
2022-08-11T13:28:06.402Z,92.36
2022-08-11T13:30:54.083Z,92.33
2022-08-11T13:33:29.158Z,92.61
2022-08-11T13:36:06.432Z,92.54
2022-08-11T13:38:43.565Z,92.38
2022-08-11T13:41:32.647Z,92.42
2022-08-11T13:44:07.629Z,92.71
2022-08-11T13:46:44.806Z,92.98
2022-08-11T13:49:20.281Z,93.25
2022-08-11T13:51:52.295Z,93.36
2022-08-11T13:54:29.546Z,93.87
2022-08-11T13:57:09.432Z,94.04
2022-08-11T13:59:52.704Z,94.04
2022-08-11T14:02:29.152Z,94.26
2022-08-11T14:05:07.168Z,94.26
2022-08-11T14:07:42.869Z,94.40
2022-08-11T14:10:19.341Z,94.04
2022-08-11T14:13:14.043Z,93.73
2022-08-11T14:15:48.482Z,94.06
2022-08-11T14:18:25.348Z,94.29
2022-08-11T14:21:15.264Z,94.27
2022-08-11T14:23:51.780Z,94.10
2022-08-11T14:26:27.828Z,94.22
2022-08-11T14:29:03.323Z,94.58
2022-08-11T14:31:36.763Z,94.95
2022-08-11T14:34:14.067Z,95.48
2022-08-11T14:36:55.328Z,95.64
2022-08-11T14:40:03.316Z,95.54
2022-08-11T14:42:56.725Z,95.65
2022-08-11T14:45:57.831Z,95.98
2022-08-11T14:48:30.723Z,96.39
2022-08-11T14:51:04.557Z,96.41
2022-08-11T14:53:41.272Z,96.59
2022-08-11T14:56:53.249Z,96.70
2022-08-11T14:59:28.933Z,96.68
2022-08-11T15:02:17.031Z,96.68
2022-08-11T15:04:48.712Z,96.60
2022-08-11T15:07:26.280Z,96.45
2022-08-11T15:10:12.131Z,96.68
2022-08-11T15:12:45.566Z,97.20
2022-08-11T15:15:36.041Z,97.14
2022-08-11T15:18:10.153Z,97.51
2022-08-11T15:20:59.606Z,97.65
2022-08-11T15:23:47.613Z,97.58
2022-08-11T15:26:41.522Z,97.52
2022-08-11T15:29:31.506Z,97.67
2022-08-11T15:32:21.494Z,98.14
2022-08-11T15:35:14.878Z,98.71
2022-08-11T15:37:53.652Z,98.64
2022-08-11T15:40:45.038Z,98.99
2022-08-11T15:43:38.910Z,99.13
2022-08-11T15:46:23.606Z,99.36
2022-08-11T15:49:02.727Z,99.58
2022-08-11T15:51:39.160Z,99.76
2022-08-11T15:54:20.788Z,99.58
2022-08-11T15:56:56.223Z,99.74
2022-08-11T15:59:47.743Z,100.00
2022-08-11T16:02:40.199Z,100.00
2022-08-11T16:05:46.000Z,100.00
2022-08-11T16:08:13.227Z,100.00
2022-08-11T16:10:47.334Z,100.00
2022-08-11T16:13:38.169Z,100.00
2022-08-11T16:16:17.681Z,100.00
2022-08-11T16:18:57.533Z,100.00
2022-08-11T16:21:35.181Z,100.00
2022-08-11T16:25:58.096Z,100.00
2022-08-11T16:27:13.638Z,100.00
2022-08-11T16:29:51.513Z,100.00
2022-08-11T16:32:24.964Z,100.00
2022-08-11T16:35:16.780Z,100.00
2022-08-11T16:38:06.876Z,100.00
2022-08-11T16:40:39.073Z,100.00
2022-08-11T16:43:29.729Z,100.00
2022-08-11T16:46:33.637Z,100.00
2022-08-11T16:49:08.119Z,100.00
2022-08-11T16:51:45.687Z,100.00
2022-08-11T16:54:19.520Z,100.00
2022-08-11T16:56:55.175Z,100.00
2022-08-11T16:59:31.442Z,100.00
2022-08-11T17:02:10.122Z,100.00
2022-08-11T17:05:03.229Z,100.00
2022-08-11T17:07:51.644Z,100.00
2022-08-11T17:11:03.846Z,100.00
2022-08-11T17:13:43.290Z,100.00
2022-08-11T17:16:19.648Z,100.00
2022-08-11T17:18:54.595Z,100.00
2022-08-11T17:21:30.849Z,100.00
2022-08-11T17:24:09.258Z,100.00
2022-08-11T17:26:58.912Z,100.00
2022-08-11T17:29:33.786Z,100.00
2022-08-11T17:32:57.113Z,100.00
2022-08-11T17:35:35.627Z,100.00
2022-08-11T17:38:10.135Z,100.00
2022-08-11T17:41:03.507Z,100.00
2022-08-11T17:43:53.557Z,100.00
2022-08-11T17:46:41.912Z,100.00
2022-08-11T17:49:17.478Z,100.00
2022-08-11T17:52:10.952Z,100.00
2022-08-11T17:55:01.292Z,100.00
2022-08-11T17:57:55.389Z,100.00
2022-08-11T18:00:32.906Z,100.00
2022-08-11T18:03:21.616Z,100.00
2022-08-11T18:05:55.240Z,100.00
2022-08-11T18:08:44.624Z,100.00
2022-08-11T18:12:06.741Z,100.00
2022-08-11T18:14:45.585Z,100.00
2022-08-11T18:17:35.145Z,100.00
2022-08-11T18:20:23.484Z,100.00
2022-08-11T18:23:12.808Z,100.00
2022-08-11T18:26:06.496Z,100.00
2022-08-11T18:29:03.315Z,100.00
2022-08-11T18:31:54.669Z,100.00
2022-08-11T18:34:51.484Z,100.00
2022-08-11T18:37:49.409Z,100.00
2022-08-11T18:40:41.460Z,100.00
2022-08-11T18:43:33.593Z,100.00
2022-08-11T18:46:25.362Z,100.00
2022-08-11T18:49:21.970Z,100.00
2022-08-11T18:52:13.584Z,100.00
2022-08-11T18:55:06.858Z,100.00
2022-08-11T18:58:01.070Z,100.00
2022-08-11T19:00:50.818Z,100.00
2022-08-11T19:03:48.474Z,100.00
2022-08-11T19:06:43.477Z,100.00
2022-08-11T19:09:36.374Z,100.00
2022-08-11T19:12:28.322Z,100.00
2022-08-11T19:15:18.310Z,100.00
2022-08-11T19:18:07.980Z,100.00
2022-08-11T19:20:56.230Z,100.00
2022-08-11T19:23:51.318Z,100.00
2022-08-11T19:26:45.511Z,100.00
2022-08-11T19:30:05.050Z,100.00
2022-08-11T19:32:43.222Z,100.00
2022-08-11T19:35:32.123Z,100.00
2022-08-11T19:38:21.097Z,100.00
2022-08-11T19:41:09.607Z,100.00
2022-08-11T19:44:01.212Z,100.00
2022-08-11T19:46:50.671Z,100.00
2022-08-11T19:49:39.026Z,100.00
2022-08-11T19:52:27.533Z,100.00
2022-08-11T19:55:16.547Z,100.00
2022-08-11T19:58:05.226Z,100.00
2022-08-11T20:00:56.403Z,100.00
2022-08-11T20:03:45.037Z,100.00
2022-08-11T20:06:36.634Z,100.00
2022-08-11T20:10:05.213Z,100.00
2022-08-11T20:12:42.105Z,100.00
2022-08-11T20:15:31.659Z,100.00
2022-08-11T20:18:22.118Z,100.00
2022-08-11T20:21:15.886Z,100.00
2022-08-11T20:24:17.263Z,100.00
2022-08-11T20:27:07.193Z,100.00
2022-08-11T20:30:08.842Z,100.00
2022-08-11T20:32:58.809Z,100.00
2022-08-11T20:35:49.426Z,100.00
2022-08-11T20:38:41.410Z,100.00
2022-08-11T20:41:31.184Z,100.00
2022-08-11T20:44:38.109Z,100.00
2022-08-11T20:47:27.563Z,100.00
2022-08-11T20:50:20.598Z,100.00
2022-08-11T20:53:11.363Z,100.00
2022-08-11T20:55:59.372Z,100.00
2022-08-11T20:59:16.706Z,100.00
2022-08-11T21:02:03.633Z,100.00
2022-08-11T21:04:54.397Z,100.00
2022-08-11T21:07:55.656Z,100.00
2022-08-11T21:10:51.447Z,100.00
2022-08-11T21:13:42.572Z,100.00
2022-08-11T21:16:38.998Z,100.00
2022-08-11T21:20:06.909Z,100.00
2022-08-11T21:22:59.366Z,100.00
2022-08-11T21:26:02.736Z,100.00
2022-08-11T21:28:53.073Z,100.00
2022-08-11T21:31:42.174Z,100.00
2022-08-11T21:34:30.335Z,100.00
2022-08-11T21:37:31.092Z,100.00
2022-08-11T21:40:19.843Z,100.00
2022-08-11T21:43:14.725Z,100.00
2022-08-11T21:46:05.008Z,100.00
2022-08-11T21:48:55.048Z,100.00
2022-08-11T21:51:44.461Z,100.00
2022-08-11T21:54:33.364Z,100.00
2022-08-11T21:57:23.471Z,100.00
2022-08-11T22:00:15.203Z,100.00
2022-08-11T22:03:08.254Z,100.00
2022-08-11T22:05:57.782Z,100.00
2022-08-11T22:08:47.280Z,100.00
2022-08-11T22:11:36.277Z,100.00
2022-08-11T22:14:24.636Z,100.00
2022-08-11T22:20:21.311Z,100.00
2022-08-11T22:23:16.711Z,99.56
2022-08-11T22:26:11.858Z,99.32
2022-08-11T22:28:59.568Z,98.53
2022-08-11T22:31:49.048Z,98.25
2022-08-11T22:34:49.144Z,98.45
2022-08-11T22:37:44.696Z,98.40
2022-08-11T22:40:36.310Z,98.28
2022-08-11T22:43:27.663Z,98.17
2022-08-11T22:46:18.103Z,97.94
2022-08-11T22:49:06.040Z,98.09
2022-08-11T22:51:56.719Z,98.27
2022-08-11T22:54:47.712Z,98.23
2022-08-11T22:57:38.677Z,97.97
2022-08-11T23:00:30.424Z,98.32
2022-08-11T23:03:37.214Z,97.83
2022-08-11T23:06:26.651Z,96.98
2022-08-11T23:09:48.254Z,96.62
2022-08-11T23:12:39.479Z,96.76
2022-08-11T23:15:29.137Z,97.21
2022-08-11T23:18:17.174Z,96.82
2022-08-11T23:21:06.063Z,96.49
2022-08-11T23:23:56.917Z,96.34
2022-08-11T23:26:53.427Z,96.39
2022-08-11T23:29:43.665Z,96.72
2022-08-11T23:32:31.337Z,96.58
2022-08-11T23:35:38.432Z,96.88
2022-08-11T23:38:30.636Z,96.53
2022-08-11T23:41:18.816Z,96.32
2022-08-11T23:44:09.177Z,95.86
2022-08-11T23:46:59.681Z,96.08
2022-08-11T23:49:49.473Z,95.86
2022-08-11T23:52:42.625Z,95.45
2022-08-11T23:55:30.581Z,95.01
2022-08-11T23:58:18.679Z,94.40
